| time (UTC) | temp C | wind direction | speed KPH | gust KPH | rain 1hr cm | rain 24hr cm | rain mn cm | humidity % | barometer mb |
| 20260507094804 | 10 | 277 | 1.6 | 4.8 | 0.05 | 0.33 | 0.10 | 89 | 1004.1 |
| 20260507094304 | 10 | 281 | 1.6 | 4.8 | 0.05 | 0.33 | 0.10 | 89 | 1003.9 |
| 20260507093805 | 10 | 274 | 0.0 | 3.2 | 0.05 | 0.33 | 0.10 | 89 | 1004.2 |
| 20260507091804 | 10 | 256 | 3.2 | 4.8 | 0.00 | 0.28 | 0.05 | 87 | 1004.1 |
| 20260507085804 | 11 | 288 | 1.6 | 4.8 | 0.00 | 0.28 | 0.05 | 87 | 1004.3 |
| 20260507082804 | 11 | 286 | 3.2 | 4.8 | 0.05 | 0.28 | 0.05 | 91 | 1003.8 |
| 20260507081804 | 11 | 332 | 0.0 | 3.2 | 0.05 | 0.28 | 0.05 | 90 | 1003.6 |
| 20260507081304 | 11 | 332 | 1.6 | 1.6 | 0.05 | 0.28 | 0.05 | 90 | 1003.6 |
| 20260507080804 | 11 | 333 | 0.0 | 3.2 | 0.05 | 0.28 | 0.05 | 89 | 1003.8 |
| 20260507074804 | 12 | 274 | 3.2 | 9.7 | 0.03 | 0.25 | 0.03 | 85 | 1003.7 |
| 20260507073304 | 12 | 255 | 3.2 | 4.8 | 0.00 | 0.23 | 0.00 | 83 | 1003.6 |
| 20260507071305 | 12 | 257 | 1.6 | 4.8 | 0.00 | 0.23 | 0.00 | 83 | 1003.2 |
| 20260507070304 | 12 | 294 | 1.6 | 3.2 | 0.00 | 0.23 | 0.00 | 83 | 1003.3 |
| 20260507065804 | 12 | 296 | 0.0 | 3.2 | 0.00 | 0.23 | 0.00 | 82 | 1003.0 |
| 20260507065306 | 12 | 290 | 3.2 | 8.0 | 0.00 | 0.23 | 0.00 | 82 | 1003.1 |
| 20260507064804 | 12 | 277 | 1.6 | 9.7 | 0.00 | 0.23 | 0.00 | 82 | 1003.1 |
| 20260507062804 | 12 | 292 | 3.2 | 11.3 | 0.00 | 0.23 | 0.00 | 83 | 1003.2 |
| 20260507061804 | 12 | 287 | 3.2 | 4.8 | 0.00 | 0.23 | 0.00 | 84 | 1002.9 |
| 20260507061304 | 12 | 292 | 4.8 | 11.3 | 0.00 | 0.23 | 0.00 | 83 | 1003.0 |
| 20260507060805 | 13 | 250 | 4.8 | 11.3 | 0.00 | 0.23 | 0.00 | 83 | 1003.1 |
| 20260507060305 | 13 | 281 | 1.6 | 14.5 | 0.00 | 0.23 | 0.00 | 83 | 1003.0 |
| 20260507055804 | 13 | 287 | 3.2 | 8.0 | 0.00 | 0.23 | 0.00 | 85 | 1003.2 |
| 20260507054805 | 13 | 244 | 3.2 | 8.0 | 0.00 | 0.23 | 0.00 | 86 | 1003.3 |
| 20260507053804 | 13 | 270 | 3.2 | 4.8 | 0.00 | 0.23 | 0.00 | 87 | 1003.5 |
| 20260507052805 | 13 | 253 | 3.2 | 8.0 | 0.00 | 0.23 | 0.00 | 88 | 1003.3 |
| 20260507051804 | 13 | 262 | 4.8 | 9.7 | 0.00 | 0.23 | 0.00 | 88 | 1003.2 |
| 20260507050804 | 13 | 298 | 4.8 | 4.8 | 0.00 | 0.23 | 0.00 | 88 | 1003.1 |
| 20260507044804 | 14 | 267 | 1.6 | 4.8 | 0.00 | 0.23 | 0.00 | 89 | 1003.3 |
| 20260507044305 | 14 | 288 | 3.2 | 4.8 | 0.00 | 0.23 | 0.00 | 89 | 1003.2 |
| 20260507043304 | 15 | 269 | 8.0 | 12.9 | 0.00 | 0.23 | 0.00 | 91 | 1003.0 |
| 20260507041804 | 15 | 178 | 0.0 | 3.2 | 0.00 | 0.23 | 0.00 | 93 | 1003.1 |
| 20260507041304 | 15 | 212 | 0.0 | 4.8 | 0.00 | 0.23 | 0.00 | 93 | 1003.1 |
| 20260507040845 | 15 | 150 | 1.6 | 4.8 | 0.00 | 0.23 | 0.00 | 93 | 1003.1 |
| 20260507040304 | 15 | 193 | 1.6 | 4.8 | 0.00 | 0.23 | 0.00 | 92 | 1003.3 |
| 20260507035804 | 15 | 179 | 1.6 | 4.8 | 0.00 | 0.23 | 0.23 | 92 | 1003.1 |
| 20260507035306 | 15 | 147 | 0.0 | 1.6 | 0.00 | 0.23 | 0.23 | 92 | 1003.1 |
| 20260507034804 | 15 | 161 | 1.6 | 4.8 | 0.00 | 0.23 | 0.23 | 92 | 1002.9 |
| 20260507034305 | 15 | 177 | 3.2 | 4.8 | 0.00 | 0.23 | 0.23 | 92 | 1002.9 |
| 20260507033304 | 16 | 220 | 4.8 | 12.9 | 0.00 | 0.23 | 0.23 | 93 | 1003.0 |
| 20260507031804 | 16 | 271 | 3.2 | 11.3 | 0.00 | 0.23 | 0.23 | 91 | 1002.7 |
| 20260507030304 | 16 | 170 | 3.2 | 12.9 | 0.00 | 0.23 | 0.23 | 91 | 1002.3 |
| 20260507025804 | 16 | 154 | 3.2 | 4.8 | 0.00 | 0.23 | 0.23 | 91 | 1002.2 |
| 20260507025306 | 16 | 210 | 3.2 | 8.0 | 0.00 | 0.23 | 0.23 | 91 | 1002.3 |
| 20260507024805 | 16 | 170 | 3.2 | 14.5 | 0.00 | 0.23 | 0.23 | 91 | 1002.4 |
| 20260507023304 | 15 | 161 | 3.2 | 9.7 | 0.00 | 0.23 | 0.23 | 91 | 1002.6 |
| 20260507020305 | 15 | 143 | 3.2 | 8.0 | 0.00 | 0.23 | 0.23 | 92 | 1002.5 |
| 20260507015306 | 15 | 159 | 4.8 | 12.9 | 0.00 | 0.23 | 0.23 | 92 | 1002.6 |
| 20260507014804 | 15 | 172 | 8.0 | 14.5 | 0.00 | 0.23 | 0.23 | 92 | 1002.6 |
| 20260507011804 | 15 | 152 | 9.7 | 19.3 | 0.00 | 0.23 | 0.23 | 91 | 1002.7 |
| 20260507010304 | 15 | 174 | 4.8 | 14.5 | 0.00 | 0.23 | 0.23 | 91 | 1002.9 |
| 20260507005804 | 15 | 158 | 4.8 | 19.3 | 0.00 | 0.23 | 0.23 | 91 | 1002.9 |
| 20260507003805 | 15 | 161 | 8.0 | 16.1 | 0.03 | 0.23 | 0.23 | 91 | 1002.7 |
| 20260507002804 | 15 | 151 | 4.8 | 19.3 | 0.03 | 0.23 | 0.23 | 91 | 1002.8 |
| 20260507001804 | 15 | 168 | 8.0 | 19.3 | 0.05 | 0.23 | 0.23 | 91 | 1002.7 |
| 20260507001304 | 15 | 152 | 8.0 | 19.3 | 0.08 | 0.23 | 0.23 | 92 | 1002.6 |
| 20260507000306 | 15 | 185 | 8.0 | 16.1 | 0.08 | 0.23 | 0.23 | 91 | 1002.5 |
| 20260506235306 | 16 | 192 | 6.4 | 12.9 | 0.05 | 0.20 | 0.20 | 91 | 1002.5 |
| 20260506234804 | 16 | 152 | 8.0 | 16.1 | 0.05 | 0.20 | 0.20 | 91 | 1002.5 |
| 20260506231804 | 16 | 165 | 8.0 | 19.3 | 0.03 | 0.18 | 0.18 | 89 | 1002.5 |
| 20260506231304 | 16 | 148 | 8.0 | 22.5 | 0.00 | 0.15 | 0.15 | 89 | 1002.5 |
| 20260506225804 | 16 | 151 | 9.7 | 27.4 | 0.00 | 0.15 | 0.15 | 90 | 1002.6 |
| 20260506224804 | 16 | 140 | 6.4 | 14.5 | 0.00 | 0.15 | 0.15 | 90 | 1002.6 |
| 20260506224304 | 16 | 162 | 11.3 | 22.5 | 0.00 | 0.15 | 0.15 | 90 | 1002.7 |
| 20260506223304 | 16 | 191 | 8.0 | 16.1 | 0.00 | 0.15 | 0.15 | 90 | 1002.7 |
| 20260506222804 | 16 | 145 | 6.4 | 32.2 | 0.00 | 0.15 | 0.15 | 89 | 1002.8 |
| 20260506222306 | 16 | 144 | 4.8 | 24.1 | 0.00 | 0.15 | 0.15 | 90 | 1002.8 |
| 20260506221804 | 16 | 155 | 4.8 | 19.3 | 0.00 | 0.15 | 0.15 | 89 | 1003.0 |
| 20260506220804 | 16 | 163 | 6.4 | 25.7 | 0.00 | 0.15 | 0.15 | 88 | 1002.9 |
| 20260506220304 | 16 | 147 | 8.0 | 14.5 | 0.00 | 0.15 | 0.15 | 88 | 1002.9 |
| 20260506215804 | 17 | 159 | 9.7 | 22.5 | 0.00 | 0.15 | 0.15 | 86 | 1003.2 |
| 20260506214804 | 17 | 168 | 14.5 | 27.4 | 0.03 | 0.15 | 0.15 | 85 | 1003.2 |
| 20260506213804 | 17 | 150 | 8.0 | 22.5 | 0.03 | 0.15 | 0.15 | 86 | 1003.3 |
| 20260506212306 | 17 | 140 | 4.8 | 16.1 | 0.05 | 0.15 | 0.15 | 86 | 1003.4 |
| 20260506211803 | 17 | 163 | 9.7 | 25.7 | 0.08 | 0.15 | 0.15 | 86 | 1003.5 |
| 20260506210804 | 17 | 152 | 9.7 | 19.3 | 0.08 | 0.15 | 0.15 | 86 | 1003.4 |
| 20260506204804 | 17 | 146 | 9.7 | 20.9 | 0.08 | 0.13 | 0.13 | 85 | 1003.6 |
| 20260506203305 | 17 | 172 | 9.7 | 24.1 | 0.10 | 0.13 | 0.13 | 84 | 1003.7 |
| 20260506202804 | 17 | 172 | 9.7 | 24.1 | 0.08 | 0.10 | 0.10 | 84 | 1003.6 |
| 20260506201804 | 17 | 187 | 8.0 | 19.3 | 0.08 | 0.08 | 0.08 | 81 | 1003.6 |
| 20260506201304 | 17 | 162 | 11.3 | 22.5 | 0.08 | 0.08 | 0.08 | 81 | 1003.5 |
| 20260506200804 | 17 | 181 | 4.8 | 19.3 | 0.08 | 0.08 | 0.08 | 82 | 1003.5 |
| 20260506195804 | 18 | 154 | 8.0 | 22.5 | 0.08 | 0.08 | 0.08 | 81 | 1003.4 |
| 20260506195306 | 18 | 150 | 11.3 | 19.3 | 0.08 | 0.08 | 0.08 | 79 | 1003.5 |
| 20260506193304 | 19 | 151 | 9.7 | 19.3 | 0.03 | 0.03 | 0.03 | 75 | 1003.8 |
| 20260506192804 | 20 | 154 | 9.7 | 19.3 | 0.03 | 0.03 | 0.03 | 73 | 1003.7 |
| 20260506192305 | 20 | 154 | 8.0 | 16.1 | 0.03 | 0.03 | 0.03 | 71 | 1003.7 |
| 20260506191303 | 20 | 178 | 8.0 | 19.3 | 0.00 | 0.00 | 0.00 | 68 | 1003.6 |
| 20260506190304 | 20 | 179 | 4.8 | 22.5 | 0.00 | 0.00 | 0.00 | 68 | 1003.6 |
| 20260506184804 | 21 | 158 | 9.7 | 24.1 | 0.00 | 0.00 | 0.00 | 66 | 1003.7 |
| 20260506184304 | 21 | 151 | 9.7 | 22.5 | 0.00 | 0.00 | 0.00 | 63 | 1003.7 |
| 20260506182805 | 22 | 172 | 11.3 | 32.2 | 0.00 | 0.00 | 0.00 | 60 | 1003.7 |
| 20260506182306 | 22 | 204 | 8.0 | 19.3 | 0.00 | 0.00 | 0.00 | 60 | 1003.7 |
| 20260506181804 | 22 | 162 | 9.7 | 19.3 | 0.00 | 0.00 | 0.00 | 59 | 1003.8 |
| 20260506181304 | 22 | 190 | 11.3 | 20.9 | 0.00 | 0.00 | 0.00 | 58 | 1003.7 |
| 20260506175806 | 22 | 159 | 8.0 | 22.5 | 0.00 | 0.00 | 0.00 | 58 | 1004.0 |
| 20260506175306 | 23 | 163 | 8.0 | 29.0 | 0.00 | 0.00 | 0.00 | 58 | 1004.0 |
| 20260506174806 | 22 | 166 | 9.7 | 19.3 | 0.00 | 0.00 | 0.00 | 59 | 1004.1 |
| 20260506174305 | 22 | 160 | 14.5 | 29.0 | 0.00 | 0.00 | 0.00 | 58 | 1004.1 |
| 20260506173305 | 22 | 156 | 17.7 | 35.4 | 0.00 | 0.00 | 0.00 | 58 | 1004.3 |
| 20260506171806 | 23 | 166 | 14.5 | 32.2 | 0.00 | 0.00 | 0.00 | 58 | 1004.3 |
| 20260506165306 | 22 | 150 | 9.7 | 29.0 | 0.00 | 0.00 | 0.00 | 61 | 1004.5 |
| 20260506163306 | 22 | 155 | 8.0 | 32.2 | 0.00 | 0.00 | 0.00 | 59 | 1004.7 |
| 20260506162806 | 22 | 159 | 8.0 | 20.9 | 0.00 | 0.00 | 0.00 | 59 | 1004.7 |
| 20260506161806 | 22 | 152 | 9.7 | 24.1 | 0.00 | 0.00 | 0.00 | 58 | 1004.9 |
| 20260506161306 | 22 | 208 | 6.4 | 22.5 | 0.00 | 0.00 | 0.00 | 58 | 1005.0 |
| 20260506160307 | 22 | 175 | 9.7 | 19.3 | 0.00 | 0.00 | 0.00 | 58 | 1005.2 |
| 20260506153806 | 23 | 164 | 16.1 | 32.2 | 0.00 | 0.00 | 0.00 | 58 | 1005.6 |
| 20260506153306 | 23 | 170 | 9.7 | 24.1 | 0.00 | 0.00 | 0.00 | 58 | 1005.6 |
| 20260506152306 | 23 | 165 | 14.5 | 33.8 | 0.00 | 0.00 | 0.00 | 57 | 1005.7 |
| 20260506151305 | 22 | 178 | 9.7 | 22.5 | 0.00 | 0.00 | 0.00 | 59 | 1005.8 |
| 20260506150806 | 22 | 157 | 12.9 | 22.5 | 0.00 | 0.00 | 0.00 | 61 | 1005.9 |
| 20260506150305 | 22 | 167 | 11.3 | 27.4 | 0.00 | 0.00 | 0.00 | 61 | 1006.1 |
| 20260506145306 | 22 | 165 | 9.7 | 25.7 | 0.00 | 0.00 | 0.00 | 63 | 1006.0 |
| 20260506144806 | 22 | 171 | 8.0 | 22.5 | 0.00 | 0.00 | 0.00 | 63 | 1006.0 |
| 20260506144305 | 21 | 154 | 9.7 | 22.5 | 0.00 | 0.00 | 0.00 | 63 | 1005.9 |
| 20260506142805 | 21 | 145 | 11.3 | 27.4 | 0.00 | 0.00 | 0.00 | 64 | 1005.9 |
| 20260506142306 | 21 | 177 | 11.3 | 19.3 | 0.00 | 0.00 | 0.00 | 67 | 1005.9 |
| 20260506135306 | 20 | 175 | 8.0 | 19.3 | 0.00 | 0.00 | 0.00 | 71 | 1006.2 |
| 20260506132806 | 19 | 182 | 4.8 | 19.3 | 0.00 | 0.00 | 0.00 | 72 | 1006.7 |
| 20260506130305 | 18 | 169 | 12.9 | 29.0 | 0.00 | 0.00 | 0.00 | 72 | 1006.5 |
| 20260506125306 | 19 | 189 | 9.7 | 25.7 | 0.00 | 0.00 | 0.00 | 72 | 1006.6 |
| 20260506124305 | 18 | 158 | 6.4 | 22.5 | 0.00 | 0.00 | 0.00 | 75 | 1006.5 |
| 20260506123806 | 17 | 175 | 9.7 | 19.3 | 0.00 | 0.00 | 0.00 | 76 | 1006.7 |
| 20260506122806 | 17 | 205 | 8.0 | 16.1 | 0.00 | 0.00 | 0.00 | 75 | 1006.9 |
| 20260506121805 | 17 | 174 | 9.7 | 27.4 | 0.00 | 0.00 | 0.00 | 75 | 1006.6 |
| 20260506120305 | 17 | 154 | 9.7 | 22.5 | 0.00 | 0.00 | 0.00 | 76 | 1006.8 |
| 20260506115806 | 17 | 154 | 9.7 | 20.9 | 0.00 | 0.00 | 0.00 | 76 | 1006.8 |
| 20260506114306 | 17 | 181 | 9.7 | 16.1 | 0.00 | 0.00 | 0.00 | 76 | 1007.0 |
| 20260506112806 | 17 | 172 | 9.7 | 25.7 | 0.00 | 0.00 | 0.00 | 76 | 1007.1 |
| 20260506111805 | 17 | 144 | 11.3 | 22.5 | 0.00 | 0.00 | 0.00 | 77 | 1006.9 |
| 20260506110306 | 16 | 170 | 9.7 | 19.3 | 0.00 | 0.00 | 0.00 | 79 | 1006.9 |
| 20260506104805 | 16 | 164 | 8.0 | 19.3 | 0.00 | 0.00 | 0.00 | 79 | 1006.9 |
| 20260506103306 | 16 | 168 | 8.0 | 19.3 | 0.00 | 0.00 | 0.00 | 79 | 1007.0 |
| 20260506102805 | 16 | 170 | 4.8 | 14.5 | 0.00 | 0.00 | 0.00 | 79 | 1007.0 |
| 20260506102306 | 16 | 175 | 9.7 | 19.3 | 0.00 | 0.00 | 0.00 | 78 | 1006.9 |
| 20260506101805 | 16 | 169 | 11.3 | 20.9 | 0.00 | 0.00 | 0.00 | 78 | 1006.8 |
| 20260506100805 | 16 | 149 | 8.0 | 25.7 | 0.00 | 0.00 | 0.00 | 79 | 1006.8 |